Fort Saint John, Canada
Current Conditions -  °F | °C
As of 11:00 AM on Thursday 23 Oct 2014 (Local Time) from CYXJ Reporting Station
Light Snow Light Snow  
Wind Chill: 17°   Ceiling: 2000
Heat Index: 28°   Visibility: 1mi
Dew Point: 27°   Wind: 16mph
Humidity: 93%   Direction: 350°N
Pressure: 29.51"   Gusts: 24mph
Location:  56.25°N, 120.85°W
Report Text: CYXJ 231700Z 35014G21KT 1SM -SN OVC020 M02/M03 A2951 RMK SC8 SLP020
Loading
Personal Weather Stations






























Interactive Weather Map
Tropical Storm Tracking
New forecast layout! Learn more

10-Day Weather Forecast

Advertisements
Track Severe Weather on mobile